AAL8935 KABQ-KTUS
Flight info
| Callsign | AAL8935 |
|---|---|
| Flight time | N/A |
| Altitude | 32000 |
| Route | MNZNO3 ONM J104 SSO ZONNA2 |
| Aircraft | B738/M-SDE2E3FGHIRWXY/LB1 |
Departure
| Time | N/A |
|---|---|
| Airport | Albuquerque International Sunport (KABQ) |
Arrival
| Time | 2026-04-24 19:15 |
|---|---|
| Airport | Tucson International Airport (KTUS) |
| Time | Latitude | Longitude | Altitude | Speed | Heading |
|---|---|---|---|---|---|
| 2026-04-24 18:54 | 32.31864 | -109.20650 | 28459 ft | 408 kts | 229° |
| 2026-04-24 18:55 | 32.27982 | -109.25519 | 27308 ft | 404 kts | 242° |
| 2026-04-24 18:55 | 32.26754 | -109.28468 | 26783 ft | 399 kts | 253° |
| 2026-04-24 18:55 | 32.26108 | -109.31630 | 26295 ft | 392 kts | 261° |
| 2026-04-24 18:56 | 32.25705 | -109.34790 | 25808 ft | 386 kts | 262° |
| 2026-04-24 18:56 | 32.25344 | -109.37914 | 25383 ft | 383 kts | 263° |
| 2026-04-24 18:56 | 32.24983 | -109.41027 | 24962 ft | 382 kts | 262° |
| 2026-04-24 18:56 | 32.24611 | -109.44133 | 24544 ft | 381 kts | 262° |
| 2026-04-24 18:57 | 32.24229 | -109.47226 | 24126 ft | 380 kts | 262° |
| 2026-04-24 18:57 | 32.23840 | -109.50312 | 23719 ft | 380 kts | 262° |
| 2026-04-24 18:57 | 32.23446 | -109.53395 | 23296 ft | 379 kts | 262° |
| 2026-04-24 18:57 | 32.23051 | -109.56464 | 22777 ft | 377 kts | 261° |
| 2026-04-24 18:58 | 32.22682 | -109.59525 | 22345 ft | 375 kts | 262° |
| 2026-04-24 18:58 | 32.22280 | -109.62571 | 21893 ft | 376 kts | 261° |
| 2026-04-24 18:58 | 32.21873 | -109.65625 | 21419 ft | 377 kts | 261° |
| 2026-04-24 18:58 | 32.21472 | -109.68678 | 20967 ft | 375 kts | 261° |
| 2026-04-24 18:59 | 32.21023 | -109.71706 | 20521 ft | 374 kts | 257° |
| 2026-04-24 18:59 | 32.20391 | -109.74633 | 20112 ft | 369 kts | 256° |
| 2026-04-24 18:59 | 32.19709 | -109.77529 | 19722 ft | 363 kts | 255° |
| 2026-04-24 18:59 | 32.19028 | -109.80368 | 19346 ft | 356 kts | 255° |
| 2026-04-24 19:00 | 32.18576 | -109.82257 | 19102 ft | 352 kts | 255° |
| 2026-04-24 19:00 | 32.17715 | -109.85892 | 18634 ft | 344 kts | 255° |
| 2026-04-24 19:00 | 32.17083 | -109.88591 | 18288 ft | 339 kts | 255° |
| 2026-04-24 19:00 | 32.16460 | -109.91263 | 17912 ft | 337 kts | 255° |
| 2026-04-24 19:01 | 32.15843 | -109.93920 | 17523 ft | 335 kts | 255° |
| 2026-04-24 19:01 | 32.15229 | -109.96565 | 17129 ft | 332 kts | 255° |
| 2026-04-24 19:01 | 32.14620 | -109.99189 | 16754 ft | 331 kts | 255° |
| 2026-04-24 19:01 | 32.14013 | -110.01799 | 16376 ft | 329 kts | 255° |
| 2026-04-24 19:02 | 32.13613 | -110.03521 | 16135 ft | 328 kts | 255° |
| 2026-04-24 19:02 | 32.12808 | -110.06984 | 15621 ft | 326 kts | 255° |
| 2026-04-24 19:02 | 32.12208 | -110.09561 | 15268 ft | 325 kts | 255° |
| 2026-04-24 19:02 | 32.11607 | -110.12138 | 14913 ft | 325 kts | 255° |
| 2026-04-24 19:03 | 32.11010 | -110.14699 | 14547 ft | 323 kts | 255° |
| 2026-04-24 19:03 | 32.10424 | -110.17206 | 14195 ft | 319 kts | 255° |
| 2026-04-24 19:03 | 32.09837 | -110.19716 | 13843 ft | 316 kts | 255° |
| 2026-04-24 19:03 | 32.09255 | -110.22203 | 13449 ft | 313 kts | 255° |
| 2026-04-24 19:04 | 32.08679 | -110.24666 | 13064 ft | 311 kts | 254° |
| 2026-04-24 19:04 | 32.08105 | -110.27116 | 12679 ft | 310 kts | 254° |
| 2026-04-24 19:04 | 32.07528 | -110.29577 | 12301 ft | 312 kts | 254° |
| 2026-04-24 19:04 | 32.06945 | -110.32055 | 11931 ft | 314 kts | 254° |
| 2026-04-24 19:05 | 32.06366 | -110.34532 | 11574 ft | 312 kts | 254° |
| 2026-04-24 19:05 | 32.05811 | -110.36981 | 11278 ft | 307 kts | 254° |
| 2026-04-24 19:05 | 32.05271 | -110.39394 | 10985 ft | 302 kts | 254° |
| 2026-04-24 19:05 | 32.04740 | -110.41768 | 10685 ft | 298 kts | 254° |
| 2026-04-24 19:06 | 32.04214 | -110.44110 | 10390 ft | 293 kts | 254° |
| 2026-04-24 19:06 | 32.03694 | -110.46419 | 10114 ft | 289 kts | 254° |
| 2026-04-24 19:06 | 32.03181 | -110.48696 | 9851 ft | 286 kts | 254° |
| 2026-04-24 19:06 | 32.02675 | -110.50936 | 9534 ft | 278 kts | 254° |
| 2026-04-24 19:07 | 32.02184 | -110.53108 | 9249 ft | 272 kts | 254° |
| 2026-04-24 19:07 | 32.01704 | -110.55227 | 8970 ft | 265 kts | 254° |
| 2026-04-24 19:07 | 32.01391 | -110.56607 | 8759 ft | 262 kts | 254° |
| 2026-04-24 19:07 | 32.00766 | -110.59361 | 8349 ft | 256 kts | 254° |
| 2026-04-24 19:08 | 32.00314 | -110.61354 | 8063 ft | 247 kts | 254° |
| 2026-04-24 19:08 | 31.99880 | -110.63265 | 7819 ft | 237 kts | 254° |
| 2026-04-24 19:08 | 31.99461 | -110.65107 | 7534 ft | 229 kts | 254° |
| 2026-04-24 19:08 | 31.99058 | -110.66884 | 7245 ft | 220 kts | 255° |
| 2026-04-24 19:09 | 31.98670 | -110.68588 | 7011 ft | 211 kts | 255° |
| 2026-04-24 19:09 | 31.98301 | -110.70210 | 6821 ft | 199 kts | 254° |
| 2026-04-24 19:09 | 31.97949 | -110.71749 | 6597 ft | 192 kts | 255° |
| 2026-04-24 19:09 | 31.97606 | -110.73252 | 6417 ft | 187 kts | 255° |
| 2026-04-24 19:10 | 31.97282 | -110.74668 | 6238 ft | 173 kts | 255° |
| 2026-04-24 19:10 | 31.96992 | -110.75988 | 5978 ft | 162 kts | 260° |
| 2026-04-24 19:10 | 31.97144 | -110.77271 | 5686 ft | 166 kts | 297° |
| 2026-04-24 19:10 | 31.97982 | -110.78242 | 5493 ft | 170 kts | 316° |
| 2026-04-24 19:11 | 31.98915 | -110.79102 | 5318 ft | 171 kts | 314° |
| 2026-04-24 19:11 | 31.99829 | -110.79968 | 5222 ft | 166 kts | 315° |
| 2026-04-24 19:11 | 32.00668 | -110.80903 | 5014 ft | 168 kts | 309° |
| 2026-04-24 19:11 | 32.01505 | -110.81885 | 4866 ft | 170 kts | 310° |
| 2026-04-24 19:12 | 32.02322 | -110.82887 | 4736 ft | 170 kts | 311° |
| 2026-04-24 19:12 | 32.03133 | -110.83898 | 4579 ft | 169 kts | 308° |
| 2026-04-24 19:12 | 32.03930 | -110.84895 | 4484 ft | 165 kts | 309° |
| 2026-04-24 19:12 | 32.04735 | -110.85857 | 4320 ft | 164 kts | 309° |
| 2026-04-24 19:13 | 32.05285 | -110.86503 | 4253 ft | 166 kts | 314° |
| 2026-04-24 19:13 | 32.06370 | -110.87796 | 4027 ft | 170 kts | 312° |
| 2026-04-24 19:13 | 32.06933 | -110.88478 | 3879 ft | 173 kts | 313° |
| 2026-04-24 19:13 | 32.08072 | -110.89808 | 3468 ft | 174 kts | 314° |
| 2026-04-24 19:14 | 32.08654 | -110.90485 | 3247 ft | 173 kts | 313° |
| 2026-04-24 19:14 | 32.09493 | -110.91466 | 2901 ft | 168 kts | 315° |
| 2026-04-24 19:14 | 32.10314 | -110.92423 | 2634 ft | 162 kts | 316° |
| 2026-04-24 19:14 | 32.11047 | -110.93281 | 2608 ft | 136 kts | 316° |
| 2026-04-24 19:15 | 32.11633 | -110.93965 | 2603 ft | 97 kts | 316° |
| 2026-04-24 19:15 | 32.12009 | -110.94403 | 2609 ft | 55 kts | 315° |
| 2026-04-24 19:15 | 32.12185 | -110.94609 | 2608 ft | 25 kts | 315° |
| 2026-04-24 19:15 | 32.12273 | -110.94707 | 2604 ft | 14 kts | 325° |
| 2026-04-24 19:16 | 32.12375 | -110.94605 | 2602 ft | 9 kts | 102° |
| 2026-04-24 19:16 | 32.12335 | -110.94546 | 2604 ft | 9 kts | 135° |
| 2026-04-24 19:16 | 32.12289 | -110.94491 | 2605 ft | 11 kts | 135° |
| 2026-04-24 19:17 | 32.12220 | -110.94409 | 2607 ft | 18 kts | 135° |
| 2026-04-24 19:17 | 32.12126 | -110.94298 | 2607 ft | 19 kts | 135° |
| 2026-04-24 19:17 | 32.12033 | -110.94190 | 2607 ft | 19 kts | 135° |
| 2026-04-24 19:17 | 32.11943 | -110.94084 | 2604 ft | 18 kts | 134° |
| 2026-04-24 19:18 | 32.11857 | -110.93981 | 2604 ft | 17 kts | 135° |
| 2026-04-24 19:18 | 32.11784 | -110.93897 | 2603 ft | 13 kts | 134° |
| 2026-04-24 19:18 | 32.11765 | -110.93798 | 2602 ft | 13 kts | 85° |
| 2026-04-24 19:18 | 32.11746 | -110.93703 | 2603 ft | 9 kts | 108° |
| 2026-04-24 19:19 | 32.11780 | -110.93663 | 2604 ft | 8 kts | 358° |
| 2026-04-24 19:19 | 32.11839 | -110.93679 | 2603 ft | 6 kts | 346° |
| 2026-04-24 19:19 | 32.11852 | -110.93682 | 2603 ft | 0 kts | 346° |